Piedra, California
Current Conditions -  °F | °C
As of 4:53 PM on Friday 24 Oct 2014 (Local Time) from KFAT Reporting Station
Clear Clear  
Wind Chill: 86°   Ceiling: Unl
Heat Index: 86°   Visibility: 10mi
Dew Point: 42°   Wind: 5mph
Humidity: 21%   Direction: 130°SE
Pressure: 29.87"   Gusts: NA
Location:  36.81°N, 119.38°W
Report Text: KFAT 242353Z 13004KT 10SM CLR 30/06 A2987 RMK AO2 SLP110 T03000056 10306 20211 57015
Loading
Personal Weather Stations






























Interactive Weather Map
Tropical Storm Tracking
New forecast layout! Learn more

10-Day Weather Forecast

Advertisements
Track Severe Weather on mobile